createdAt,value
2023-10-10T00:00:50.453Z,100057.44
2023-10-10T00:03:19.627Z,100051.38
2023-10-10T00:05:46.269Z,100068.34
2023-10-10T00:08:12.821Z,100060.81
2023-10-10T00:10:51.698Z,100063.66
2023-10-10T00:13:19.111Z,100056.03
2023-10-10T00:15:52.415Z,100043.09
2023-10-10T00:18:20.694Z,100056.03
2023-10-10T00:21:05.825Z,100044.59
2023-10-10T00:23:39.516Z,100059.00
2023-10-10T00:26:06.735Z,100061.50
2023-10-10T00:28:35.690Z,100059.44
2023-10-10T00:31:09.454Z,100059.78
2023-10-10T00:33:39.498Z,100070.91
2023-10-10T00:36:12.036Z,100073.97
2023-10-10T00:38:38.648Z,100074.13
2023-10-10T00:41:12.185Z,100065.50
2023-10-10T00:43:38.761Z,100063.13
2023-10-10T00:46:09.088Z,100061.75
2023-10-10T00:48:39.378Z,100073.72
2023-10-10T00:51:11.852Z,100068.03
2023-10-10T00:53:43.307Z,100074.75
2023-10-10T00:56:10.213Z,100080.44
2023-10-10T00:58:37.886Z,100077.09
2023-10-10T01:01:10.881Z,100081.28
2023-10-10T01:03:41.568Z,100083.28
2023-10-10T01:06:27.800Z,100090.19
2023-10-10T01:09:00.883Z,100089.50
2023-10-10T01:11:27.577Z,100081.28
2023-10-10T01:13:54.133Z,100099.47
2023-10-10T01:16:25.972Z,100107.06
2023-10-10T01:18:55.415Z,100097.97
2023-10-10T01:21:32.158Z,100098.31
2023-10-10T01:24:07.545Z,100102.38
2023-10-10T01:26:38.385Z,100105.78
2023-10-10T01:29:35.206Z,100110.34
2023-10-10T01:32:03.782Z,100111.22
2023-10-10T01:34:34.200Z,100121.16
2023-10-10T01:37:08.810Z,100108.91
2023-10-10T01:39:54.799Z,100112.94
2023-10-10T01:42:32.778Z,100106.25
2023-10-10T01:45:09.305Z,100106.25
2023-10-10T01:47:40.826Z,100109.31
2023-10-10T01:50:16.914Z,100109.69
2023-10-10T01:52:47.645Z,100101.25
2023-10-10T01:55:17.721Z,100092.53
2023-10-10T01:57:44.534Z,100097.25
2023-10-10T02:00:28.321Z,100101.31
2023-10-10T02:02:56.946Z,100099.94
2023-10-10T02:05:46.525Z,100107.66
2023-10-10T02:08:18.158Z,100103.47
2023-10-10T02:10:48.835Z,100110.88
2023-10-10T02:13:15.904Z,100100.97
2023-10-10T02:15:43.254Z,100108.19
2023-10-10T02:18:32.920Z,100100.47
2023-10-10T02:21:07.257Z,100106.84
2023-10-10T02:23:34.099Z,100105.34
2023-10-10T02:26:15.610Z,100112.09
2023-10-10T02:28:49.384Z,100118.50
2023-10-10T02:31:17.572Z,100124.72
2023-10-10T02:33:49.774Z,100120.84
2023-10-10T02:36:17.852Z,100099.31
2023-10-10T02:38:56.941Z,100108.88
2023-10-10T02:41:39.289Z,100126.09
2023-10-10T02:44:10.905Z,100118.50
2023-10-10T02:46:43.699Z,100127.56
2023-10-10T02:49:24.660Z,100125.88
2023-10-10T02:51:56.438Z,100125.88
2023-10-10T02:54:28.100Z,100121.16
2023-10-10T02:57:26.536Z,100126.25
2023-10-10T03:00:00.496Z,100108.03
2023-10-10T03:02:31.605Z,100139.19
2023-10-10T03:04:59.921Z,100127.56
2023-10-10T03:07:30.446Z,100139.34
2023-10-10T03:10:05.064Z,100133.97
2023-10-10T03:12:32.827Z,100124.19
2023-10-10T03:15:29.394Z,100122.34
2023-10-10T03:17:56.474Z,100129.59
2023-10-10T03:20:45.586Z,100121.16
2023-10-10T03:23:12.163Z,100131.13
2023-10-10T03:25:48.007Z,100137.66
2023-10-10T03:28:29.931Z,100129.09
2023-10-10T03:31:24.694Z,100152.97
2023-10-10T03:34:17.953Z,100143.56
2023-10-10T03:37:04.246Z,100140.00
2023-10-10T03:39:45.812Z,100145.56
2023-10-10T03:42:30.925Z,100150.78
2023-10-10T03:45:15.990Z,100155.00
2023-10-10T03:48:00.797Z,100164.06
2023-10-10T03:50:46.003Z,100156.00
2023-10-10T03:53:30.813Z,100160.38
2023-10-10T03:56:15.793Z,100154.50
2023-10-10T03:59:00.828Z,100158.38
2023-10-10T04:01:46.065Z,100159.22
2023-10-10T04:04:32.909Z,100152.66
2023-10-10T04:07:17.692Z,100164.44
2023-10-10T04:10:02.593Z,100163.25
2023-10-10T04:12:47.502Z,100165.59
2023-10-10T04:15:33.066Z,100158.56
2023-10-10T04:18:18.276Z,100169.66
2023-10-10T04:21:03.126Z,100178.06
2023-10-10T04:23:48.107Z,100180.75
2023-10-10T04:26:32.966Z,100173.19
2023-10-10T04:29:18.041Z,100183.44
2023-10-10T04:32:03.033Z,100176.88
2023-10-10T04:34:48.258Z,100178.72
2023-10-10T04:37:46.977Z,100173.50
2023-10-10T04:40:32.392Z,100168.97
2023-10-10T04:43:17.155Z,100179.41
2023-10-10T04:46:01.998Z,100185.47
2023-10-10T04:48:47.171Z,100187.81
2023-10-10T04:51:31.961Z,100191.50
2023-10-10T04:54:17.146Z,100186.97
2023-10-10T04:57:02.486Z,100178.91
2023-10-10T04:59:47.861Z,100192.22
2023-10-10T05:02:32.787Z,100194.22
2023-10-10T05:05:17.997Z,100206.69
2023-10-10T05:08:03.163Z,100214.91
2023-10-10T05:10:48.393Z,100209.69
2023-10-10T05:13:33.261Z,100212.72
2023-10-10T05:16:22.841Z,100213.22
2023-10-10T05:19:12.224Z,100213.91
2023-10-10T05:21:57.110Z,100209.03
2023-10-10T05:24:25.792Z,100213.94
2023-10-10T05:26:55.699Z,100220.97
2023-10-10T05:29:22.394Z,100212.25
2023-10-10T05:31:52.205Z,100228.88
2023-10-10T05:34:21.739Z,100222.38
2023-10-10T05:36:49.225Z,100228.22
2023-10-10T05:39:19.170Z,100234.63
2023-10-10T05:41:45.970Z,100235.28
2023-10-10T05:44:14.925Z,100243.41
2023-10-10T05:46:41.828Z,100251.16
2023-10-10T05:49:08.301Z,100252.34
2023-10-10T05:51:34.802Z,100256.72
2023-10-10T05:54:01.319Z,100259.91
2023-10-10T05:56:31.115Z,100250.00
2023-10-10T05:58:57.974Z,100254.13
2023-10-10T06:01:25.039Z,100242.53
2023-10-10T06:03:52.617Z,100253.97
2023-10-10T06:06:19.598Z,100260.38
2023-10-10T06:08:46.665Z,100267.25
2023-10-10T06:11:16.910Z,100261.09
2023-10-10T06:13:46.859Z,100270.50
2023-10-10T06:16:16.127Z,100276.41
2023-10-10T06:18:45.792Z,100281.13
2023-10-10T06:21:12.828Z,100279.44
2023-10-10T06:23:43.164Z,100281.97
2023-10-10T06:26:10.249Z,100289.91
2023-10-10T06:28:37.351Z,100286.84
2023-10-10T06:31:11.619Z,100296.13
2023-10-10T06:33:42.531Z,100297.63
2023-10-10T06:36:33.772Z,100288.53
2023-10-10T06:39:19.312Z,100297.81
2023-10-10T06:41:48.727Z,100273.72
2023-10-10T06:44:16.421Z,100288.88
2023-10-10T06:46:49.202Z,100289.03
2023-10-10T06:49:16.555Z,100300.00
2023-10-10T06:51:43.228Z,100302.69
2023-10-10T06:54:20.818Z,100315.66
2023-10-10T06:57:00.302Z,100318.16
2023-10-10T06:59:30.672Z,100313.63
2023-10-10T07:02:01.480Z,100327.47
2023-10-10T07:04:28.745Z,100310.25
2023-10-10T07:07:01.555Z,100313.81
2023-10-10T07:09:29.830Z,100315.81
2023-10-10T07:11:57.615Z,100305.56
2023-10-10T07:14:27.376Z,100323.25
2023-10-10T07:16:58.002Z,100326.78
2023-10-10T07:19:31.472Z,100330.00
2023-10-10T07:22:01.199Z,100340.25
2023-10-10T07:24:44.035Z,100343.13
2023-10-10T07:27:13.923Z,100333.88
2023-10-10T07:29:46.365Z,100341.44
2023-10-10T07:32:19.069Z,100323.41
2023-10-10T07:34:52.832Z,100338.59
2023-10-10T07:37:19.923Z,100334.53
2023-10-10T07:40:05.277Z,100342.47
2023-10-10T07:42:32.382Z,100325.28
2023-10-10T07:44:59.621Z,100338.56
2023-10-10T07:47:27.985Z,100334.50
2023-10-10T07:49:55.464Z,100338.41
2023-10-10T07:52:22.613Z,100328.63
2023-10-10T07:54:54.788Z,100320.84
2023-10-10T07:57:27.544Z,100339.22
2023-10-10T07:59:56.726Z,100334.34
2023-10-10T08:02:26.945Z,100336.69
2023-10-10T08:04:54.939Z,100333.13
2023-10-10T08:07:23.990Z,100337.84
2023-10-10T08:09:50.908Z,100340.69
2023-10-10T08:12:17.573Z,100340.03
2023-10-10T08:14:44.645Z,100308.00
2023-10-10T08:17:20.134Z,100327.88
2023-10-10T08:19:52.753Z,100331.25
2023-10-10T08:22:21.010Z,100344.72
2023-10-10T08:24:47.537Z,100340.34
2023-10-10T08:27:14.203Z,100340.66
2023-10-10T08:29:41.698Z,100343.03
2023-10-10T08:32:10.009Z,100359.19
2023-10-10T08:34:44.079Z,100360.06
2023-10-10T08:37:11.124Z,100360.22
2023-10-10T08:39:40.282Z,100352.13
2023-10-10T08:42:12.210Z,100357.34
2023-10-10T08:44:40.958Z,100373.38
2023-10-10T08:47:09.250Z,100363.72
2023-10-10T08:49:36.732Z,100346.22
2023-10-10T08:52:04.853Z,100360.50
2023-10-10T08:54:33.676Z,100362.63
2023-10-10T08:57:01.380Z,100364.72
2023-10-10T08:59:32.601Z,100364.34
2023-10-10T09:02:10.125Z,100372.44
2023-10-10T09:04:36.743Z,100375.84
2023-10-10T09:07:09.636Z,100373.03
2023-10-10T09:09:36.526Z,100378.59
2023-10-10T09:12:04.636Z,100388.75
2023-10-10T09:14:42.493Z,100383.72
2023-10-10T09:17:10.798Z,100388.09
2023-10-10T09:19:42.265Z,100379.53
2023-10-10T09:22:13.645Z,100392.16
2023-10-10T09:24:42.516Z,100402.44
2023-10-10T09:27:29.665Z,100396.50
2023-10-10T09:29:57.447Z,100390.06
2023-10-10T09:32:43.999Z,100392.09
2023-10-10T09:35:10.831Z,100391.78
2023-10-10T09:37:42.552Z,100391.31
2023-10-10T09:40:17.105Z,100372.44
2023-10-10T09:42:59.729Z,100398.88
2023-10-10T09:45:37.202Z,100406.81
2023-10-10T09:48:29.251Z,100386.56
2023-10-10T09:51:18.464Z,100404.44
2023-10-10T09:53:48.749Z,100392.09
2023-10-10T09:56:16.854Z,100397.47
2023-10-10T09:58:45.778Z,100391.38
2023-10-10T10:01:24.999Z,100388.97
2023-10-10T10:04:04.834Z,100377.09
2023-10-10T10:06:41.363Z,100387.50
2023-10-10T10:09:48.048Z,100393.72
2023-10-10T10:12:32.864Z,100398.09
2023-10-10T10:15:21.553Z,100367.81
2023-10-10T10:18:15.268Z,100399.16
2023-10-10T10:20:48.055Z,100387.47
2023-10-10T10:23:19.420Z,100380.28
2023-10-10T10:26:12.270Z,100389.66
2023-10-10T10:28:42.974Z,100386.06
2023-10-10T10:31:29.229Z,100387.38
2023-10-10T10:34:06.898Z,100389.53
2023-10-10T10:36:55.427Z,100394.75
2023-10-10T10:39:28.400Z,100395.31
2023-10-10T10:41:57.706Z,100395.22
2023-10-10T10:44:47.691Z,100392.44
2023-10-10T10:47:39.409Z,100391.44
2023-10-10T10:50:18.704Z,100395.72
2023-10-10T10:52:57.964Z,100395.53
2023-10-10T10:55:30.487Z,100394.69
2023-10-10T10:58:07.509Z,100397.22
2023-10-10T11:01:00.157Z,100402.63
2023-10-10T11:03:34.801Z,100392.63
2023-10-10T11:06:02.253Z,100393.69
2023-10-10T11:08:57.164Z,100394.19
2023-10-10T11:11:33.211Z,100398.38
2023-10-10T11:14:27.230Z,100393.97
2023-10-10T11:16:59.540Z,100390.50
2023-10-10T11:19:30.530Z,100388.44
2023-10-10T11:22:02.327Z,100393.00
2023-10-10T11:24:32.826Z,100394.91
2023-10-10T11:27:08.337Z,100387.25
2023-10-10T11:30:01.141Z,100383.88
2023-10-10T11:32:37.901Z,100370.72
2023-10-10T11:35:34.074Z,100375.41
2023-10-10T11:38:00.907Z,100363.25
2023-10-10T11:40:31.707Z,100364.59
2023-10-10T11:43:00.562Z,100368.59
2023-10-10T11:45:28.022Z,100368.31
2023-10-10T11:48:06.676Z,100359.25
2023-10-10T11:50:48.257Z,100363.22
2023-10-10T11:53:28.933Z,100357.53
2023-10-10T11:55:56.565Z,100355.16
2023-10-10T11:58:36.928Z,100357.69
2023-10-10T12:01:07.089Z,100337.22
2023-10-10T12:03:41.515Z,100328.69
2023-10-10T12:06:18.660Z,100338.59
2023-10-10T12:08:48.209Z,100338.00
2023-10-10T12:11:21.203Z,100340.88
2023-10-10T12:13:49.640Z,100332.66
2023-10-10T12:16:18.635Z,100315.50
2023-10-10T12:18:51.771Z,100315.72
2023-10-10T12:21:22.601Z,100317.28
2023-10-10T12:24:02.595Z,100325.59
2023-10-10T12:26:37.284Z,100325.81
2023-10-10T12:29:03.953Z,100323.88
2023-10-10T12:31:34.763Z,100324.16
2023-10-10T12:34:01.453Z,100324.91
2023-10-10T12:36:31.443Z,100330.19
2023-10-10T12:39:05.810Z,100329.84
2023-10-10T12:41:47.194Z,100323.03
2023-10-10T12:44:15.097Z,100322.47
2023-10-10T12:46:41.843Z,100325.56
2023-10-10T12:49:12.757Z,100319.16
2023-10-10T12:51:40.715Z,100304.66
2023-10-10T12:54:11.295Z,100305.72
2023-10-10T12:56:50.415Z,100320.22
2023-10-10T12:59:27.191Z,100314.59
2023-10-10T13:02:01.278Z,100318.38
2023-10-10T13:04:33.139Z,100308.72
2023-10-10T13:07:06.047Z,100313.94
2023-10-10T13:09:33.105Z,100305.31
2023-10-10T13:12:03.837Z,100300.03
2023-10-10T13:14:34.154Z,100295.16
2023-10-10T13:17:21.944Z,100301.56
2023-10-10T13:19:49.971Z,100298.63
2023-10-10T13:22:22.094Z,100288.59
2023-10-10T13:24:50.039Z,100283.50
2023-10-10T13:27:18.136Z,100295.25
2023-10-10T13:29:44.775Z,100294.94
2023-10-10T13:32:11.664Z,100286.09
2023-10-10T13:34:38.913Z,100288.16
2023-10-10T13:37:08.978Z,100292.31
2023-10-10T13:39:49.078Z,100289.81
2023-10-10T13:42:16.043Z,100285.19
2023-10-10T13:44:43.772Z,100273.28
2023-10-10T13:47:11.550Z,100286.97
2023-10-10T13:49:45.861Z,100278.09
2023-10-10T13:52:13.922Z,100285.13
2023-10-10T13:54:40.677Z,100281.72
2023-10-10T13:57:08.611Z,100280.66
2023-10-10T13:59:35.171Z,100288.00
2023-10-10T14:02:05.286Z,100281.28
2023-10-10T14:04:47.035Z,100282.22
2023-10-10T14:07:15.595Z,100292.25
2023-10-10T14:09:56.142Z,100284.31
2023-10-10T14:12:33.436Z,100278.34
2023-10-10T14:15:00.703Z,100291.00
2023-10-10T14:17:27.350Z,100283.66
2023-10-10T14:19:53.955Z,100278.88
2023-10-10T14:22:25.014Z,100279.09
2023-10-10T14:24:53.720Z,100287.28
2023-10-10T14:27:21.396Z,100271.19
2023-10-10T14:29:49.137Z,100269.94
2023-10-10T14:32:30.886Z,100277.50
2023-10-10T14:35:01.903Z,100265.19
2023-10-10T14:40:00.861Z,100270.41
2023-10-10T14:42:29.029Z,100276.56
2023-10-10T14:44:55.601Z,100278.84
2023-10-10T14:47:22.505Z,100279.34
2023-10-10T14:49:51.471Z,100267.19
2023-10-10T14:52:19.075Z,100284.81
2023-10-10T14:54:50.278Z,100282.28
2023-10-10T14:57:25.640Z,100283.78
2023-10-10T14:59:56.857Z,100284.00
2023-10-10T15:02:27.578Z,100278.97
2023-10-10T15:04:55.802Z,100274.78
2023-10-10T15:07:22.436Z,100290.91
2023-10-10T15:09:49.089Z,100287.13
2023-10-10T15:12:15.611Z,100287.97
2023-10-10T15:14:44.115Z,100296.97
2023-10-10T15:17:11.299Z,100287.75
2023-10-10T15:19:37.909Z,100296.31
2023-10-10T15:22:04.657Z,100296.06
2023-10-10T15:24:34.209Z,100301.31
2023-10-10T15:27:01.344Z,100301.28
2023-10-10T15:29:28.320Z,100308.38
2023-10-10T15:31:57.319Z,100312.94
2023-10-10T15:34:24.747Z,100314.78
2023-10-10T15:36:51.309Z,100304.25
2023-10-10T15:39:18.271Z,100320.38
2023-10-10T15:41:46.066Z,100320.97
2023-10-10T15:44:14.021Z,100330.75
2023-10-10T15:46:43.692Z,100338.25
2023-10-10T15:49:29.156Z,100342.66
2023-10-10T15:52:04.825Z,100338.19
2023-10-10T15:54:35.706Z,100331.31
2023-10-10T15:57:09.909Z,100342.16
2023-10-10T15:59:42.992Z,100337.53
2023-10-10T16:02:11.135Z,100347.94
2023-10-10T16:04:43.517Z,100348.13
2023-10-10T16:07:11.934Z,100332.16
2023-10-10T16:09:38.503Z,100336.47
2023-10-10T16:12:08.982Z,100329.16
2023-10-10T16:14:38.228Z,100345.56
2023-10-10T16:17:05.186Z,100332.53
2023-10-10T16:19:33.706Z,100340.66
2023-10-10T16:22:02.423Z,100351.00
2023-10-10T16:24:29.443Z,100358.63
2023-10-10T16:27:00.532Z,100355.22
2023-10-10T16:29:34.416Z,100348.41
2023-10-10T16:32:10.088Z,100366.94
2023-10-10T16:34:41.461Z,100362.78
2023-10-10T16:37:10.581Z,100369.78
2023-10-10T16:39:39.561Z,100364.56
2023-10-10T16:42:06.185Z,100364.63
2023-10-10T16:44:32.913Z,100362.09
2023-10-10T16:47:02.303Z,100366.47
2023-10-10T16:49:29.290Z,100368.69
2023-10-10T16:51:55.833Z,100381.22
2023-10-10T16:54:22.637Z,100375.31
2023-10-10T16:56:49.169Z,100373.88
2023-10-10T16:59:16.337Z,100387.53
2023-10-10T17:01:46.015Z,100381.25
2023-10-10T17:04:12.824Z,100389.13
2023-10-10T17:06:39.493Z,100380.72
2023-10-10T17:09:06.235Z,100398.81
2023-10-10T17:11:33.105Z,100398.00
2023-10-10T17:14:01.058Z,100403.28
2023-10-10T17:16:30.799Z,100397.28
2023-10-10T17:19:14.308Z,100408.44
2023-10-10T17:21:47.468Z,100408.69
2023-10-10T17:24:16.924Z,100403.97
2023-10-10T17:26:45.007Z,100420.53
2023-10-10T17:29:14.863Z,100415.19
2023-10-10T17:31:41.571Z,100420.13
2023-10-10T17:34:08.256Z,100432.25
2023-10-10T17:36:38.190Z,100429.22
2023-10-10T17:39:05.703Z,100417.28
2023-10-10T17:41:36.067Z,100433.78
2023-10-10T17:44:10.253Z,100416.25
2023-10-10T17:46:37.344Z,100427.88
2023-10-10T17:49:05.913Z,100429.41
2023-10-10T17:51:36.180Z,100428.56
2023-10-10T17:54:03.683Z,100437.88
2023-10-10T17:56:30.521Z,100440.88
2023-10-10T17:58:57.145Z,100447.13
2023-10-10T18:01:23.766Z,100441.41
2023-10-10T18:03:55.044Z,100449.34
2023-10-10T18:06:27.479Z,100439.03
2023-10-10T18:09:01.897Z,100458.25
2023-10-10T18:11:33.284Z,100449.63
2023-10-10T18:14:00.048Z,100441.22
2023-10-10T18:16:26.735Z,100451.31
2023-10-10T18:18:53.978Z,100453.16
2023-10-10T18:21:23.578Z,100459.41
2023-10-10T18:23:50.306Z,100457.41
2023-10-10T18:26:19.346Z,100461.81
2023-10-10T18:28:45.923Z,100455.72
2023-10-10T18:31:19.953Z,100457.72
2023-10-10T18:33:46.703Z,100458.75
2023-10-10T18:36:13.556Z,100460.78
2023-10-10T18:38:40.227Z,100457.41
2023-10-10T18:41:07.217Z,100462.78
2023-10-10T18:43:33.908Z,100455.22
2023-10-10T18:46:01.914Z,100458.25
2023-10-10T18:48:29.148Z,100473.91
2023-10-10T18:50:56.037Z,100467.19
2023-10-10T18:53:26.538Z,100468.53
2023-10-10T18:55:55.387Z,100471.06
2023-10-10T18:58:27.171Z,100475.63
2023-10-10T19:00:56.254Z,100472.41
2023-10-10T19:03:23.685Z,100485.22
2023-10-10T19:05:53.847Z,100486.41
2023-10-10T19:08:21.619Z,100479.31
2023-10-10T19:10:53.983Z,100491.47
2023-10-10T19:13:20.943Z,100479.31
2023-10-10T19:15:50.266Z,100483.03
2023-10-10T19:18:17.274Z,100490.13
2023-10-10T19:20:47.830Z,100491.13
2023-10-10T19:23:16.115Z,100486.75
2023-10-10T19:25:49.051Z,100482.38
2023-10-10T19:28:17.328Z,100483.03
2023-10-10T19:30:45.296Z,100484.06
2023-10-10T19:33:16.371Z,100484.75
2023-10-10T19:35:46.895Z,100483.06
2023-10-10T19:38:13.780Z,100486.94
2023-10-10T19:40:44.767Z,100482.84
2023-10-10T19:43:14.035Z,100474.94
2023-10-10T19:45:41.319Z,100481.00
2023-10-10T19:48:08.503Z,100490.44
2023-10-10T19:50:44.207Z,100487.56
2023-10-10T19:53:14.146Z,100486.56
2023-10-10T19:55:45.329Z,100482.19
2023-10-10T19:58:13.130Z,100474.25
2023-10-10T20:00:42.865Z,100483.03
2023-10-10T20:03:10.945Z,100492.13
2023-10-10T20:05:37.902Z,100488.59
2023-10-10T20:08:08.798Z,100496.69
2023-10-10T20:10:35.405Z,100493.31
2023-10-10T20:13:06.590Z,100491.63
2023-10-10T20:15:38.334Z,100489.94
2023-10-10T20:18:06.601Z,100503.72
2023-10-10T20:20:33.870Z,100500.00
2023-10-10T20:23:03.406Z,100513.66
2023-10-10T20:25:31.608Z,100502.00
2023-10-10T20:28:00.945Z,100518.72
2023-10-10T20:30:31.570Z,100517.72
2023-10-10T20:33:01.922Z,100522.59
2023-10-10T20:35:33.135Z,100519.06
2023-10-10T20:38:07.175Z,100522.91
2023-10-10T20:40:36.221Z,100524.81
2023-10-10T20:43:08.518Z,100530.16
2023-10-10T20:45:37.618Z,100523.03
2023-10-10T20:48:17.071Z,100511.91
2023-10-10T20:50:45.072Z,100508.00
2023-10-10T20:53:13.176Z,100524.69
2023-10-10T20:55:47.190Z,100519.78
2023-10-10T20:58:14.740Z,100524.13
2023-10-10T21:00:41.660Z,100520.56
2023-10-10T21:03:15.474Z,100524.97
2023-10-10T21:05:45.522Z,100532.00
2023-10-10T21:08:12.345Z,100527.44
2023-10-10T21:10:42.009Z,100522.88
2023-10-10T21:13:08.771Z,100529.09
2023-10-10T21:15:35.351Z,100524.25
2023-10-10T21:18:01.969Z,100515.31
2023-10-10T21:20:29.293Z,100518.53
2023-10-10T21:23:00.655Z,100513.78
2023-10-10T21:25:28.079Z,100514.84
2023-10-10T21:27:58.454Z,100515.16
2023-10-10T21:30:26.919Z,100510.63
2023-10-10T21:32:55.487Z,100494.78
2023-10-10T21:35:24.320Z,100486.19
2023-10-10T21:37:50.959Z,100483.34
2023-10-10T21:40:21.385Z,100492.22
2023-10-10T21:42:50.035Z,100488.72
2023-10-10T21:45:17.804Z,100500.00
2023-10-10T21:47:48.507Z,100508.41
2023-10-10T21:50:17.049Z,100514.97
2023-10-10T21:52:45.408Z,100519.75
2023-10-10T21:55:14.619Z,100509.59
2023-10-10T21:57:41.708Z,100508.72
2023-10-10T22:00:20.917Z,100507.03
2023-10-10T22:02:50.557Z,100515.25
2023-10-10T22:05:20.100Z,100516.59
2023-10-10T22:07:48.278Z,100517.69
2023-10-10T22:10:16.885Z,100517.75
2023-10-10T22:12:44.649Z,100531.22
2023-10-10T22:15:12.279Z,100531.47
2023-10-10T22:17:42.882Z,100537.78
2023-10-10T22:20:12.099Z,100540.00
2023-10-10T22:22:41.891Z,100538.78
2023-10-10T22:25:18.945Z,100543.19
2023-10-10T22:27:47.146Z,100545.38
2023-10-10T22:30:15.801Z,100540.50
2023-10-10T22:32:46.101Z,100524.97
2023-10-10T22:35:14.311Z,100542.56
2023-10-10T22:37:41.489Z,100539.94
2023-10-10T22:40:12.892Z,100541.81
2023-10-10T22:42:39.731Z,100532.75
2023-10-10T22:45:11.096Z,100535.28
2023-10-10T22:47:38.842Z,100535.03
2023-10-10T22:50:07.516Z,100531.34
2023-10-10T22:52:38.178Z,100524.91
2023-10-10T22:55:08.034Z,100525.91
2023-10-10T22:57:38.204Z,100528.94
2023-10-10T23:00:14.359Z,100531.34
2023-10-10T23:02:49.443Z,100531.41
2023-10-10T23:05:16.150Z,100533.81
2023-10-10T23:07:43.090Z,100533.50
2023-10-10T23:10:17.430Z,100535.03
2023-10-10T23:12:44.086Z,100535.72
2023-10-10T23:15:12.874Z,100539.09
2023-10-10T23:17:41.191Z,100538.78
2023-10-10T23:20:13.668Z,100529.84
2023-10-10T23:22:41.663Z,100535.53
2023-10-10T23:25:09.355Z,100532.84
2023-10-10T23:27:35.848Z,100533.03
2023-10-10T23:30:02.769Z,100523.25
2023-10-10T23:32:29.523Z,100523.13
2023-10-10T23:34:57.006Z,100518.56
2023-10-10T23:37:24.665Z,100528.00
2023-10-10T23:39:53.791Z,100521.66
2023-10-10T23:42:25.006Z,100528.38
2023-10-10T23:44:51.602Z,100530.75
2023-10-10T23:47:20.718Z,100527.59
2023-10-10T23:49:48.224Z,100521.50
2023-10-10T23:52:17.289Z,100520.31
2023-10-10T23:54:46.644Z,100525.00
2023-10-10T23:57:15.987Z,100517.22
2023-10-10T23:59:46.479Z,100511.38
